createdAt,value
2019-05-22T00:00:32.443Z,12.30
2019-05-22T00:03:03.364Z,12.30
2019-05-22T00:05:33.903Z,12.20
2019-05-22T00:08:12.669Z,12.30
2019-05-22T00:10:43.470Z,12.30
2019-05-22T00:13:22.067Z,12.20
2019-05-22T00:15:53.917Z,12.30
2019-05-22T00:18:30.345Z,12.30
2019-05-22T00:21:00.590Z,12.40
2019-05-22T00:23:37.611Z,12.40
2019-05-22T00:26:07.626Z,12.40
2019-05-22T00:28:38.445Z,12.40
2019-05-22T00:31:15.956Z,12.40
2019-05-22T00:33:45.550Z,12.40
2019-05-22T00:36:23.035Z,12.40
2019-05-22T00:39:00.496Z,12.50
2019-05-22T00:41:45.343Z,12.40
2019-05-22T00:44:16.270Z,12.40
2019-05-22T00:46:45.928Z,12.40
2019-05-22T00:49:24.158Z,12.40
2019-05-22T00:52:07.047Z,12.40
2019-05-22T00:55:02.143Z,12.40
2019-05-22T00:57:51.128Z,12.50
2019-05-22T01:00:35.410Z,12.40
2019-05-22T01:03:06.733Z,12.50
2019-05-22T01:05:44.095Z,12.40
2019-05-22T01:08:16.003Z,12.50
2019-05-22T01:10:56.648Z,12.50
2019-05-22T01:13:30.644Z,12.40
2019-05-22T01:16:08.140Z,12.40
2019-05-22T01:18:38.900Z,12.40
2019-05-22T01:21:16.429Z,12.30
2019-05-22T01:23:47.346Z,12.30
2019-05-22T01:26:26.032Z,12.30
2019-05-22T01:28:55.854Z,12.30
2019-05-22T01:31:44.004Z,12.30
2019-05-22T01:34:13.421Z,12.30
2019-05-22T01:36:53.812Z,12.30
2019-05-22T01:39:49.381Z,12.10
2019-05-22T01:42:38.533Z,12.10
2019-05-22T01:45:11.452Z,12.20
2019-05-22T01:47:55.707Z,12.10
2019-05-22T01:50:41.016Z,12.10
2019-05-22T01:53:18.109Z,12.10
2019-05-22T01:55:48.119Z,12.10
2019-05-22T01:58:20.105Z,12.10
2019-05-22T02:00:59.480Z,12.10
2019-05-22T02:03:30.352Z,12.10
2019-05-22T02:06:08.354Z,12.10
2019-05-22T02:08:43.971Z,12.10
2019-05-22T02:11:22.861Z,12.10
2019-05-22T02:13:58.144Z,12.00
2019-05-22T02:16:38.231Z,12.00
2019-05-22T02:19:08.213Z,11.90
2019-05-22T02:21:37.834Z,11.90
2019-05-22T02:24:15.646Z,12.00
2019-05-22T02:26:45.987Z,12.00
2019-05-22T02:29:23.224Z,11.90
2019-05-22T02:31:55.496Z,11.80
2019-05-22T02:34:31.365Z,11.80
2019-05-22T02:37:00.586Z,11.80
2019-05-22T02:39:45.809Z,11.80
2019-05-22T02:42:26.887Z,11.70
2019-05-22T02:45:04.574Z,11.80
2019-05-22T02:47:34.911Z,11.70
2019-05-22T02:50:11.797Z,11.70
2019-05-22T02:52:41.497Z,11.70
2019-05-22T02:55:12.209Z,11.70
2019-05-22T02:57:48.525Z,11.70
2019-05-22T03:00:19.548Z,11.80
2019-05-22T03:03:01.439Z,11.80
2019-05-22T03:05:30.952Z,11.80
2019-05-22T03:08:06.995Z,11.80
2019-05-22T03:10:36.609Z,11.80
2019-05-22T03:13:15.354Z,11.90
2019-05-22T03:15:44.822Z,11.90
2019-05-22T03:18:14.947Z,11.80
2019-05-22T03:20:50.652Z,11.80
2019-05-22T03:23:36.263Z,11.80
2019-05-22T03:26:14.192Z,11.80
2019-05-22T03:28:43.735Z,11.70
2019-05-22T03:31:20.037Z,11.70
2019-05-22T03:33:50.681Z,11.70
2019-05-22T03:36:27.881Z,11.70
2019-05-22T03:39:05.767Z,11.70
2019-05-22T03:41:55.731Z,11.70
2019-05-22T03:44:28.007Z,11.60
2019-05-22T03:47:03.865Z,11.60
2019-05-22T03:49:33.623Z,11.50
2019-05-22T03:52:02.869Z,11.50
2019-05-22T03:54:39.618Z,11.50
2019-05-22T03:57:10.310Z,11.50
2019-05-22T03:59:46.112Z,11.60
2019-05-22T04:02:15.750Z,11.50
2019-05-22T04:04:45.336Z,11.60
2019-05-22T04:07:25.236Z,11.50
2019-05-22T04:09:55.977Z,11.60
2019-05-22T04:12:32.566Z,11.60
2019-05-22T04:15:02.526Z,11.50
2019-05-22T04:17:40.729Z,11.50
2019-05-22T04:20:12.075Z,11.50
2019-05-22T04:22:48.135Z,11.40
2019-05-22T04:25:17.757Z,11.40
2019-05-22T04:27:47.484Z,11.40
2019-05-22T04:30:25.042Z,11.40
2019-05-22T04:32:54.322Z,11.50
2019-05-22T04:35:30.414Z,11.50
2019-05-22T04:38:00.886Z,11.50
2019-05-22T04:41:04.255Z,11.50
2019-05-22T04:43:39.970Z,11.50
2019-05-22T04:46:18.637Z,11.50
2019-05-22T04:48:48.190Z,11.50
2019-05-22T04:51:36.884Z,11.50
2019-05-22T04:54:06.187Z,11.50
2019-05-22T04:56:42.763Z,11.50
2019-05-22T04:59:13.301Z,11.50
2019-05-22T05:01:49.839Z,11.60
2019-05-22T05:04:19.184Z,11.50
2019-05-22T05:06:49.828Z,11.50
2019-05-22T05:09:26.071Z,11.50
2019-05-22T05:11:55.561Z,11.50
2019-05-22T05:14:31.791Z,11.50
2019-05-22T05:17:01.086Z,11.60
2019-05-22T05:19:37.751Z,11.50
2019-05-22T05:22:07.375Z,11.50
2019-05-22T05:24:36.617Z,11.40
2019-05-22T05:27:13.441Z,11.40
2019-05-22T05:29:42.772Z,11.40
2019-05-22T05:32:18.915Z,11.40
2019-05-22T05:34:52.902Z,11.40
2019-05-22T05:37:30.863Z,11.50
2019-05-22T05:40:34.674Z,11.50
2019-05-22T05:43:13.225Z,11.50
2019-05-22T05:45:50.532Z,11.50
2019-05-22T05:48:30.351Z,11.50
2019-05-22T05:51:42.629Z,11.60
2019-05-22T05:54:23.055Z,11.70
2019-05-22T05:56:53.675Z,11.70
2019-05-22T05:59:30.785Z,11.60
2019-05-22T06:02:01.297Z,11.70
2019-05-22T06:04:45.661Z,11.70
2019-05-22T06:07:20.831Z,11.60
2019-05-22T06:10:36.147Z,11.70
2019-05-22T06:13:05.785Z,11.70
2019-05-22T06:15:48.089Z,11.70
2019-05-22T06:18:36.210Z,11.70
2019-05-22T06:21:13.748Z,11.70
2019-05-22T06:24:20.422Z,11.80
2019-05-22T06:27:25.492Z,11.80
2019-05-22T06:30:10.490Z,11.90
2019-05-22T06:33:43.112Z,12.00
2019-05-22T06:36:16.574Z,12.00
2019-05-22T06:39:09.775Z,12.10
2019-05-22T06:41:47.709Z,12.10
2019-05-22T06:44:40.469Z,12.10
2019-05-22T06:47:21.576Z,12.10
2019-05-22T06:49:59.870Z,12.10
2019-05-22T06:52:29.288Z,12.10
2019-05-22T06:55:05.589Z,12.10
2019-05-22T06:57:35.035Z,12.20
2019-05-22T07:00:38.343Z,12.30
2019-05-22T07:03:07.959Z,12.30
2019-05-22T07:05:44.465Z,12.40
2019-05-22T07:08:13.871Z,12.30
2019-05-22T07:10:44.091Z,12.30
2019-05-22T07:13:20.549Z,12.40
2019-05-22T07:15:52.198Z,12.50
2019-05-22T07:18:30.703Z,12.60
2019-05-22T07:20:59.846Z,12.60
2019-05-22T07:23:39.121Z,12.70
2019-05-22T07:26:27.625Z,12.70
2019-05-22T07:29:05.362Z,12.70
2019-05-22T07:34:45.607Z,12.60
2019-05-22T07:37:14.842Z,12.60
2019-05-22T07:39:44.383Z,12.70
2019-05-22T07:42:20.809Z,12.70
2019-05-22T07:44:50.349Z,12.80
2019-05-22T07:47:33.153Z,12.90
2019-05-22T07:50:03.016Z,12.80
2019-05-22T07:52:35.301Z,12.80
2019-05-22T07:55:12.158Z,12.90
2019-05-22T07:57:43.353Z,13.00
2019-05-22T08:00:19.962Z,13.00
2019-05-22T08:02:50.234Z,13.00
2019-05-22T08:05:28.372Z,13.10
2019-05-22T08:07:59.158Z,13.20
2019-05-22T08:10:50.137Z,13.30
2019-05-22T08:13:28.289Z,13.30
2019-05-22T08:16:04.866Z,13.40
2019-05-22T08:18:38.630Z,13.40
2019-05-22T08:21:14.834Z,13.60
2019-05-22T08:23:44.108Z,13.70
2019-05-22T08:26:21.694Z,13.70
2019-05-22T08:28:51.250Z,13.80
2019-05-22T08:31:22.906Z,13.80
2019-05-22T08:33:59.890Z,13.80
2019-05-22T08:36:38.752Z,13.80
2019-05-22T08:39:17.367Z,13.90
2019-05-22T08:41:46.597Z,14.00
2019-05-22T08:44:22.555Z,14.10
2019-05-22T08:46:59.970Z,14.10
2019-05-22T08:49:36.344Z,14.30
2019-05-22T08:52:05.831Z,14.30
2019-05-22T08:54:35.757Z,14.30
2019-05-22T08:57:14.365Z,14.40
2019-05-22T08:59:43.741Z,14.40
2019-05-22T09:02:20.604Z,14.40
2019-05-22T09:04:50.031Z,14.50
2019-05-22T09:07:27.203Z,14.70
2019-05-22T09:09:57.432Z,14.80
2019-05-22T09:12:26.723Z,14.90
2019-05-22T09:15:02.331Z,14.90
2019-05-22T09:17:31.975Z,14.90
2019-05-22T09:20:08.441Z,15.20
2019-05-22T09:22:40.645Z,15.50
2019-05-22T09:25:19.306Z,15.70
2019-05-22T09:27:48.910Z,16.00
2019-05-22T09:30:25.452Z,16.70
2019-05-22T09:32:56.165Z,17.00
2019-05-22T09:35:39.382Z,17.30
2019-05-22T09:38:09.012Z,17.40
2019-05-22T09:40:38.615Z,17.40
2019-05-22T09:43:14.543Z,17.20
2019-05-22T09:45:43.664Z,17.10
2019-05-22T09:48:26.191Z,17.00
2019-05-22T09:50:55.901Z,17.00
2019-05-22T09:53:32.531Z,17.00
2019-05-22T09:56:01.853Z,17.00
2019-05-22T09:58:31.691Z,17.10
2019-05-22T10:01:11.698Z,17.20
2019-05-22T10:06:54.527Z,17.20
2019-05-22T10:09:25.394Z,17.10
2019-05-22T10:12:01.845Z,17.10
2019-05-22T10:14:30.875Z,18.00
2019-05-22T10:17:07.979Z,18.80
2019-05-22T10:19:37.667Z,19.10
2019-05-22T10:22:08.411Z,19.60
2019-05-22T10:24:44.242Z,19.50
2019-05-22T10:27:14.309Z,19.50
2019-05-22T10:29:49.798Z,19.00
2019-05-22T10:32:18.983Z,18.90
2019-05-22T10:34:48.110Z,19.40
2019-05-22T10:37:24.640Z,19.60
2019-05-22T10:39:54.838Z,19.80
2019-05-22T10:42:31.337Z,19.80
2019-05-22T10:45:00.735Z,19.70
2019-05-22T10:47:43.938Z,20.00
2019-05-22T10:50:14.119Z,20.40
2019-05-22T10:52:43.340Z,20.70
2019-05-22T10:55:19.924Z,20.90
2019-05-22T10:57:50.215Z,20.70
2019-05-22T11:00:27.162Z,20.60
2019-05-22T11:02:57.287Z,20.70
2019-05-22T11:05:40.764Z,20.50
2019-05-22T11:08:10.013Z,19.90
2019-05-22T11:10:39.269Z,19.80
2019-05-22T11:13:15.621Z,19.90
2019-05-22T11:15:44.789Z,20.30
2019-05-22T11:18:20.771Z,20.30
2019-05-22T11:20:49.958Z,19.90
2019-05-22T11:23:26.139Z,19.90
2019-05-22T11:25:55.414Z,20.10
2019-05-22T11:28:25.223Z,19.70
2019-05-22T11:31:02.569Z,19.90
2019-05-22T11:33:34.339Z,19.90
2019-05-22T11:36:11.453Z,19.90
2019-05-22T11:38:40.543Z,19.70
2019-05-22T11:41:16.960Z,19.90
2019-05-22T11:43:46.676Z,19.90
2019-05-22T11:46:16.857Z,19.60
2019-05-22T11:48:59.748Z,19.50
2019-05-22T11:51:29.140Z,19.40
2019-05-22T11:54:09.222Z,19.50
2019-05-22T11:56:35.459Z,19.40
2019-05-22T11:59:05.737Z,19.30
2019-05-22T12:01:41.532Z,19.50
2019-05-22T12:04:13.093Z,19.70
2019-05-22T12:06:49.007Z,19.60
2019-05-22T12:09:18.776Z,19.30
2019-05-22T12:11:54.572Z,19.10
2019-05-22T12:14:24.073Z,19.40
2019-05-22T12:16:59.555Z,19.60
2019-05-22T12:19:29.284Z,19.60
2019-05-22T12:21:58.708Z,19.60
2019-05-22T12:24:37.384Z,19.50
2019-05-22T12:27:06.101Z,19.50
2019-05-22T12:29:41.905Z,19.60
2019-05-22T12:32:11.760Z,19.60
2019-05-22T12:34:49.575Z,19.50
2019-05-22T12:37:18.930Z,19.40
2019-05-22T12:39:48.436Z,19.40
2019-05-22T12:42:24.491Z,19.40
2019-05-22T12:45:00.927Z,19.30
2019-05-22T12:47:37.829Z,19.00
2019-05-22T12:50:07.869Z,19.00
2019-05-22T12:52:45.246Z,19.00
2019-05-22T12:55:14.766Z,19.10
2019-05-22T12:57:50.540Z,19.20
2019-05-22T13:00:22.430Z,19.30
2019-05-22T13:02:59.380Z,19.30
2019-05-22T13:05:29.925Z,19.40
2019-05-22T13:08:13.599Z,19.30
2019-05-22T13:10:50.347Z,19.20
2019-05-22T13:13:27.025Z,19.20
2019-05-22T13:15:58.041Z,19.30
2019-05-22T13:18:28.948Z,19.10
2019-05-22T13:21:05.422Z,19.10
2019-05-22T13:23:41.682Z,19.10
2019-05-22T13:26:17.644Z,19.10
2019-05-22T13:28:48.039Z,19.00
2019-05-22T13:31:25.024Z,19.00
2019-05-22T13:33:54.879Z,19.00
2019-05-22T13:36:24.429Z,19.00
2019-05-22T13:39:06.276Z,19.00
2019-05-22T13:41:35.519Z,19.00
2019-05-22T13:44:11.983Z,18.90
2019-05-22T13:46:41.806Z,18.80
2019-05-22T13:49:17.878Z,19.00
2019-05-22T13:51:47.091Z,19.00
2019-05-22T13:54:23.920Z,19.00
2019-05-22T13:56:53.138Z,18.90
2019-05-22T13:59:22.842Z,18.70
2019-05-22T14:01:59.031Z,18.60
2019-05-22T14:04:28.424Z,18.30
2019-05-22T14:07:04.660Z,18.30
2019-05-22T14:09:41.988Z,18.20
2019-05-22T14:12:18.135Z,18.20
2019-05-22T14:14:47.286Z,18.30
2019-05-22T14:17:25.280Z,18.20
2019-05-22T14:19:54.446Z,18.20
2019-05-22T14:22:30.265Z,18.20
2019-05-22T14:24:59.525Z,18.50
2019-05-22T14:27:28.970Z,18.90
2019-05-22T14:30:05.047Z,19.40
2019-05-22T14:32:34.393Z,19.70
2019-05-22T14:35:10.733Z,19.80
2019-05-22T14:37:41.478Z,19.90
2019-05-22T14:40:26.838Z,19.90
2019-05-22T14:43:03.109Z,20.00
2019-05-22T14:45:32.862Z,20.10
2019-05-22T14:48:02.424Z,20.10
2019-05-22T14:50:38.872Z,20.20
2019-05-22T14:53:08.509Z,20.00
2019-05-22T14:55:47.308Z,19.90
2019-05-22T14:58:17.966Z,19.70
2019-05-22T15:00:54.384Z,19.60
2019-05-22T15:03:23.950Z,19.60
2019-05-22T15:05:54.203Z,19.50
2019-05-22T15:08:30.344Z,19.60
2019-05-22T15:11:06.511Z,19.70
2019-05-22T15:13:42.673Z,19.70
2019-05-22T15:16:12.764Z,19.80
2019-05-22T15:18:49.068Z,19.70
2019-05-22T15:21:19.555Z,19.80
2019-05-22T15:23:51.002Z,19.70
2019-05-22T15:26:26.654Z,19.70
2019-05-22T15:28:56.378Z,19.80
2019-05-22T15:31:32.698Z,19.90
2019-05-22T15:34:04.224Z,19.90
2019-05-22T15:36:41.271Z,19.80
2019-05-22T15:39:12.222Z,19.80
2019-05-22T15:41:55.989Z,20.00
2019-05-22T15:44:26.849Z,20.30
2019-05-22T15:46:56.363Z,20.40
2019-05-22T15:49:33.419Z,20.40
2019-05-22T15:52:07.247Z,20.30
2019-05-22T15:54:45.734Z,20.10
2019-05-22T15:57:17.181Z,20.10
2019-05-22T15:59:54.256Z,20.10
2019-05-22T16:02:25.559Z,20.10
2019-05-22T16:05:04.203Z,19.90
2019-05-22T16:07:33.688Z,19.80
2019-05-22T16:10:18.593Z,19.70
2019-05-22T16:12:49.102Z,19.70
2019-05-22T16:15:19.467Z,19.80
2019-05-22T16:18:10.306Z,19.70
2019-05-22T16:20:27.179Z,19.60
2019-05-22T16:23:04.641Z,19.60
2019-05-22T16:25:33.832Z,19.60
2019-05-22T16:28:10.917Z,19.60
2019-05-22T16:30:41.262Z,19.60
2019-05-22T16:33:18.381Z,19.60
2019-05-22T16:35:47.780Z,19.60
2019-05-22T16:38:26.447Z,19.60
2019-05-22T16:41:02.397Z,19.60
2019-05-22T16:43:48.834Z,19.60
2019-05-22T16:46:09.834Z,19.60
2019-05-22T16:48:39.708Z,19.60
2019-05-22T16:51:17.002Z,19.50
2019-05-22T16:53:51.544Z,19.40
2019-05-22T16:56:28.911Z,19.30
2019-05-22T16:58:58.953Z,19.30
2019-05-22T17:01:56.172Z,19.30
2019-05-22T17:04:07.363Z,19.30
2019-05-22T17:06:37.264Z,19.20
2019-05-22T17:09:18.035Z,19.20
2019-05-22T17:12:04.661Z,19.20
2019-05-22T17:14:34.025Z,19.10
2019-05-22T17:17:03.903Z,19.10
2019-05-22T17:19:40.069Z,19.10
2019-05-22T17:22:09.428Z,19.20
2019-05-22T17:24:46.273Z,19.20
2019-05-22T17:27:17.029Z,19.20
2019-05-22T17:29:53.118Z,19.20
2019-05-22T17:32:25.162Z,19.20
2019-05-22T17:34:54.419Z,19.10
2019-05-22T17:37:31.461Z,19.20
2019-05-22T17:40:00.882Z,19.10
2019-05-22T17:42:44.480Z,19.00
2019-05-22T17:45:14.947Z,18.90
2019-05-22T17:47:52.464Z,18.70
2019-05-22T17:50:27.157Z,18.60
2019-05-22T17:53:01.791Z,18.40
2019-05-22T17:55:34.208Z,18.40
2019-05-22T17:58:04.506Z,18.40
2019-05-22T18:00:43.738Z,18.30
2019-05-22T18:03:14.599Z,18.20
2019-05-22T18:05:53.043Z,18.00
2019-05-22T18:08:23.212Z,17.90
2019-05-22T18:11:06.320Z,17.80
2019-05-22T18:13:40.971Z,17.70
2019-05-22T18:16:17.914Z,17.60
2019-05-22T18:18:47.218Z,17.50
2019-05-22T18:21:19.146Z,17.50
2019-05-22T18:23:54.666Z,17.40
2019-05-22T18:26:26.863Z,17.30
2019-05-22T18:29:03.465Z,17.20
2019-05-22T18:31:51.853Z,17.10
2019-05-22T18:34:28.224Z,17.10
2019-05-22T18:37:00.327Z,17.00
2019-05-22T18:39:30.704Z,17.00
2019-05-22T18:42:06.850Z,16.90
2019-05-22T18:44:43.102Z,16.90
2019-05-22T18:47:19.395Z,16.90
2019-05-22T18:49:48.711Z,16.70
2019-05-22T18:52:18.173Z,16.70
2019-05-22T18:54:53.939Z,16.70
2019-05-22T18:57:23.439Z,16.60
2019-05-22T19:00:04.056Z,16.60
2019-05-22T19:02:30.882Z,16.60
2019-05-22T19:05:00.273Z,16.50
2019-05-22T19:07:35.657Z,16.40
2019-05-22T19:10:12.475Z,16.40
2019-05-22T19:12:54.657Z,16.40
2019-05-22T19:15:25.719Z,16.30
2019-05-22T19:17:55.496Z,16.20
2019-05-22T19:20:31.656Z,16.20
2019-05-22T19:23:01.929Z,16.20
2019-05-22T19:25:37.642Z,16.10
2019-05-22T19:28:06.815Z,16.10
2019-05-22T19:30:36.133Z,16.10
2019-05-22T19:33:14.837Z,16.10
2019-05-22T19:35:44.248Z,16.10
2019-05-22T19:38:22.875Z,16.00
2019-05-22T19:40:51.924Z,16.00
2019-05-22T19:43:36.764Z,16.00
2019-05-22T19:46:06.806Z,15.90
2019-05-22T19:48:36.421Z,16.00
2019-05-22T19:51:14.090Z,16.00
2019-05-22T19:53:43.460Z,15.90
2019-05-22T19:56:21.061Z,15.80
2019-05-22T19:58:51.026Z,15.70
2019-05-22T20:01:27.444Z,15.60
2019-05-22T20:03:56.819Z,15.60
2019-05-22T20:06:27.896Z,15.70
2019-05-22T20:09:05.303Z,15.50
2019-05-22T20:11:41.788Z,15.50
2019-05-22T20:14:18.414Z,15.40
2019-05-22T20:16:50.719Z,15.30
2019-05-22T20:19:19.980Z,15.30
2019-05-22T20:21:59.733Z,15.20
2019-05-22T20:24:36.090Z,15.30
2019-05-22T20:27:13.476Z,15.20
2019-05-22T20:29:43.194Z,15.20
2019-05-22T20:32:15.225Z,15.20
2019-05-22T20:34:52.426Z,15.20
2019-05-22T20:37:24.420Z,15.30
2019-05-22T20:39:54.410Z,15.20
2019-05-22T20:42:31.067Z,15.10
2019-05-22T20:45:08.129Z,15.10
2019-05-22T20:47:46.296Z,15.00
2019-05-22T20:50:16.880Z,14.90
2019-05-22T20:55:43.941Z,14.80
2019-05-22T20:58:14.243Z,14.70
2019-05-22T21:00:45.156Z,14.70
2019-05-22T21:03:22.409Z,14.60
2019-05-22T21:05:54.146Z,14.60
2019-05-22T21:08:33.545Z,14.60
2019-05-22T21:11:10.781Z,14.60
2019-05-22T21:13:53.312Z,14.60
2019-05-22T21:16:23.061Z,14.60
2019-05-22T21:18:59.451Z,14.60
2019-05-22T21:21:29.266Z,14.60
2019-05-22T21:24:11.288Z,14.40
2019-05-22T21:26:37.070Z,14.30
2019-05-22T21:29:08.173Z,14.40
2019-05-22T21:31:47.714Z,14.30
2019-05-22T21:34:16.607Z,14.30
2019-05-22T21:36:52.800Z,14.20
2019-05-22T21:39:23.575Z,14.10
2019-05-22T21:41:52.732Z,13.90
2019-05-22T21:44:28.585Z,13.80
2019-05-22T21:47:05.855Z,13.60
2019-05-22T21:49:41.651Z,13.50
2019-05-22T21:52:11.477Z,13.50
2019-05-22T21:54:41.059Z,13.50
2019-05-22T21:57:18.045Z,13.50
2019-05-22T21:59:48.101Z,13.50
2019-05-22T22:02:31.717Z,13.40
2019-05-22T22:05:00.773Z,13.40
2019-05-22T22:07:36.852Z,13.40
2019-05-22T22:10:06.763Z,13.40
2019-05-22T22:12:50.407Z,13.40
2019-05-22T22:15:27.146Z,13.50
2019-05-22T22:18:04.044Z,13.50
2019-05-22T22:20:34.450Z,13.30
2019-05-22T22:23:04.914Z,13.30
2019-05-22T22:25:41.410Z,13.20
2019-05-22T22:28:12.836Z,13.20
2019-05-22T22:30:54.605Z,13.10
2019-05-22T22:33:28.938Z,13.10
2019-05-22T22:36:05.908Z,13.10
2019-05-22T22:38:36.347Z,13.00
2019-05-22T22:41:19.977Z,13.00
2019-05-22T22:43:52.193Z,13.00
2019-05-22T22:46:46.542Z,13.00
2019-05-22T22:49:18.206Z,13.00
2019-05-22T22:51:48.881Z,12.90
2019-05-22T22:54:25.130Z,12.90
2019-05-22T22:56:55.530Z,12.80
2019-05-22T22:59:32.961Z,12.80
2019-05-22T23:02:03.872Z,12.70
2019-05-22T23:04:34.206Z,12.70
2019-05-22T23:07:14.314Z,12.70
2019-05-22T23:09:44.189Z,12.80
2019-05-22T23:12:20.854Z,12.80
2019-05-22T23:15:01.749Z,12.90
2019-05-22T23:17:38.058Z,12.90
2019-05-22T23:20:07.476Z,12.90
2019-05-22T23:22:35.831Z,12.80
2019-05-22T23:25:12.877Z,12.80
2019-05-22T23:27:42.788Z,12.80
2019-05-22T23:30:11.919Z,12.70
2019-05-22T23:32:49.732Z,12.60
2019-05-22T23:35:18.934Z,12.60
2019-05-22T23:37:48.578Z,12.50
2019-05-22T23:40:29.738Z,12.40
2019-05-22T23:43:00.503Z,12.50
2019-05-22T23:45:43.431Z,12.40
2019-05-22T23:48:14.651Z,12.50
2019-05-22T23:50:44.502Z,12.50
2019-05-22T23:53:22.780Z,12.50
2019-05-22T23:55:51.987Z,12.40
2019-05-22T23:58:24.057Z,12.30
